Página principal
METAR-TAF:

METAR-TAF

Aeroportos :

Aeroporto Internacional de Phnom Penh

Phnom Penh, Camboja

latitude: 11-33N, longitude: 104-51E, altura: 10 m

Observação actual do tempo

O boletim foi feito há 21 minutos, às 05:00 UTC
Vento 5 kt de su-sudeste, variando entre este e sul
Temperatura 33°C
Humidade 46%
Pressão 1012 hPa
Visibilidade 10 km ou mais
Poucas nuvensa uma altura de 1700 ft

METAR: VDPP 230500Z 15005KT 100V180 9999 FEW017 33/20 Q1012

Hora: 12:21 (05:21 UTC)

Previsão

O boletim foi feito há 6 horas e 21 minutos, às 23:00 UTC
Previsão válida de 23 às 00 UTC a 23 às 18 UTC
Vento 7 kt de sul
Visibilidade 10 km ou mais
Nuvens dispersasa uma altura de 1700 ft

TAF: VDPP 222300Z 2300/2318 18007KT 9999 SCT017

Observações e previsões do tempo de mais de 4000 aeroportos (mensagens METAR e TAF).

As estações disponíveis são os pontos amarelos e vermelhos sobre o mapa.

Mova o rato sobre o mapa para ver o nome da estação.

Depois clique no ponto para visualizar as observações e previsões meteorológicas.

Para alterar o mapa : clique nos botões verdes com uma cruz preta para aumentar o zoom; no botão verde com uma pitada de zoom; ou nas setas verdes para mapas adjacentes.


METAR-TAF: